createdAt,value
2024-04-21T00:01:21.263Z,101884.16
2024-04-21T00:05:20.209Z,101884.45
2024-04-21T00:09:21.677Z,101883.75
2024-04-21T00:13:20.353Z,101880.28
2024-04-21T00:21:20.398Z,101883.98
2024-04-21T00:25:20.287Z,101883.51
2024-04-21T00:29:20.468Z,101887.97
2024-04-21T00:33:20.529Z,101890.45
2024-04-21T00:37:20.385Z,101889.95
2024-04-21T00:41:20.348Z,101894.61
2024-04-21T00:49:20.368Z,101892.53
2024-04-21T00:53:22.681Z,101896.86
2024-04-21T00:57:20.662Z,101896.42
2024-04-21T01:01:20.578Z,101896.11
2024-04-21T01:05:20.348Z,101889.57
2024-04-21T01:09:20.430Z,101894.09000000001
2024-04-21T01:17:20.438Z,101886.19
2024-04-21T01:21:20.386Z,101888.62000000001
2024-04-21T01:29:20.691Z,101886.95999999999
2024-04-21T01:33:20.678Z,101889.92
2024-04-21T01:37:20.817Z,101888.5
2024-04-21T01:41:20.411Z,101889.53
2024-04-21T01:49:21.708Z,101889.69
2024-04-21T01:57:20.566Z,101887.78
2024-04-21T02:01:20.669Z,101886.67
2024-04-21T02:05:20.644Z,101883.67
2024-04-21T02:09:20.489Z,101885.19
2024-04-21T02:13:20.725Z,101883.44
2024-04-21T02:17:20.626Z,101877.01
2024-04-21T02:21:20.582Z,101873.15999999999
2024-04-21T02:25:20.727Z,101874.73
2024-04-21T02:29:20.726Z,101867.33
2024-04-21T02:33:21.794Z,101868.87000000001
2024-04-21T02:37:20.745Z,101867.31999999999
2024-04-21T02:41:20.704Z,101871.1
2024-04-21T02:45:20.623Z,101868.78
2024-04-21T02:53:20.706Z,101870.98
2024-04-21T02:57:20.803Z,101871.55
2024-04-21T03:01:20.871Z,101875.06
2024-04-21T03:05:20.638Z,101879.26999999999
2024-04-21T03:09:20.822Z,101878.37
2024-04-21T03:13:21.163Z,101875.71
2024-04-21T03:17:21.432Z,101875.37
2024-04-21T03:21:20.812Z,101890.47
2024-04-21T03:25:20.905Z,101877.12
2024-04-21T03:29:20.833Z,101886.61
2024-04-21T03:33:21.017Z,101881.26999999999
2024-04-21T03:37:21.802Z,101881.95
2024-04-21T03:41:21.181Z,101881.17
2024-04-21T03:45:20.774Z,101883.18000000001
2024-04-21T03:49:21.003Z,101882.22
2024-04-21T03:53:22.216Z,101884.31
2024-04-21T03:57:20.883Z,101882.17
2024-04-21T04:01:20.876Z,101888.31
2024-04-21T04:05:20.950Z,101881.29000000001
2024-04-21T04:09:20.953Z,101879.61
2024-04-21T04:13:21.031Z,101878.86
2024-04-21T04:17:21.022Z,101874.54000000001
2024-04-21T04:21:21.018Z,101880.61
2024-04-21T04:25:20.931Z,101874.05
2024-04-21T04:29:21.040Z,101879.66
2024-04-21T04:33:20.976Z,101877.98
2024-04-21T04:37:21.224Z,101884.61
2024-04-21T04:41:20.956Z,101884.38
2024-04-21T04:45:21.093Z,101887.34
2024-04-21T04:49:21.005Z,101890.19
2024-04-21T04:57:21.444Z,101893.40999999999
2024-04-21T05:01:21.083Z,101894.72
2024-04-21T05:05:21.020Z,101897.43999999999
2024-04-21T05:09:20.996Z,101902.94
2024-04-21T05:13:21.139Z,101904.16
2024-04-21T05:17:21.104Z,101901.79000000001
2024-04-21T05:21:21.187Z,101911.8
2024-04-21T05:25:21.193Z,101911.36
2024-04-21T05:29:21.519Z,101919.48
2024-04-21T05:33:21.157Z,101922.42
2024-04-21T05:37:21.356Z,101923.15999999999
2024-04-21T05:41:21.062Z,101926.87
2024-04-21T05:45:21.299Z,101924.97
2024-04-21T05:49:21.217Z,101926.58
2024-04-21T05:53:21.183Z,101928.31
2024-04-21T05:57:21.124Z,101931.28
2024-04-21T06:05:21.300Z,101937.09
2024-04-21T06:09:21.170Z,101937.73999999999
2024-04-21T06:13:21.144Z,101941.33
2024-04-21T06:17:21.325Z,101943.74
2024-04-21T06:21:21.292Z,101949.91
2024-04-21T06:25:21.387Z,101949.1
2024-04-21T06:29:21.356Z,101959.89
2024-04-21T06:33:21.218Z,101956.0
2024-04-21T06:37:21.370Z,101962.73
2024-04-21T06:41:21.239Z,101968.0
2024-04-21T06:45:21.482Z,101967.40999999999
2024-04-21T06:49:22.424Z,101969.78
2024-04-21T06:53:21.383Z,101974.65999999999
2024-04-21T06:57:21.288Z,101975.56
2024-04-21T07:01:21.863Z,101975.59
2024-04-21T07:05:21.285Z,101962.08
2024-04-21T07:09:21.364Z,101965.75
2024-04-21T07:13:21.442Z,101963.22
2024-04-21T07:17:21.493Z,101963.07
2024-04-21T07:21:21.360Z,101958.06999999999
2024-04-21T07:25:25.239Z,101968.53
2024-04-21T07:29:22.510Z,101964.95
2024-04-21T07:33:22.362Z,101963.31
2024-04-21T07:41:22.836Z,101970.51
2024-04-21T07:45:21.427Z,101975.2
2024-04-21T07:49:21.598Z,101976.23
2024-04-21T07:53:21.575Z,101979.98999999999
2024-04-21T07:57:22.089Z,101979.04999999999
2024-04-21T08:05:21.957Z,101969.75
2024-04-21T08:09:29.848Z,101976.67
2024-04-21T08:13:21.693Z,101973.78
2024-04-21T08:17:21.679Z,101973.68000000001
2024-04-21T08:21:21.586Z,101972.22
2024-04-21T08:25:22.070Z,101970.54000000001
2024-04-21T08:29:22.665Z,101975.49
2024-04-21T08:33:22.548Z,101991.28
2024-04-21T08:37:24.548Z,101974.34
2024-04-21T08:41:22.720Z,101973.8
2024-04-21T08:45:23.859Z,101966.51000000001
2024-04-21T08:49:22.344Z,101966.58
2024-04-21T08:53:22.304Z,101959.25
2024-04-21T08:57:22.897Z,101963.69
2024-04-21T09:01:23.187Z,101961.31
2024-04-21T09:05:22.208Z,101974.5
2024-04-21T09:09:22.025Z,101965.20000000001
2024-04-21T09:13:23.171Z,101972.52
2024-04-21T09:17:23.483Z,101963.62000000001
2024-04-21T09:21:22.440Z,101977.45
2024-04-21T09:25:23.874Z,101976.81999999999
2024-04-21T09:29:22.139Z,101981.09
2024-04-21T09:33:21.996Z,101976.23
2024-04-21T09:37:22.319Z,101974.51999999999
2024-04-21T09:41:24.608Z,101978.64
2024-04-21T09:45:23.120Z,101978.94
2024-04-21T09:49:22.523Z,101977.89
2024-04-21T09:53:22.976Z,101976.09999999999
2024-04-21T09:57:24.352Z,101970.9
2024-04-21T10:05:24.902Z,101982.51000000001
2024-04-21T10:09:23.802Z,101983.01
2024-04-21T10:13:22.871Z,101983.65
2024-04-21T10:21:22.023Z,101986.05
2024-04-21T10:25:22.058Z,101987.40000000001
2024-04-21T10:29:27.495Z,101993.4
2024-04-21T10:33:27.771Z,101992.44
2024-04-21T10:37:23.727Z,101998.93
2024-04-21T10:41:22.446Z,101992.24
2024-04-21T10:49:22.357Z,101994.84999999999
2024-04-21T10:53:22.167Z,101988.37
2024-04-21T10:57:22.009Z,101981.12999999999
2024-04-21T11:01:25.162Z,101984.78
2024-04-21T11:05:22.642Z,101984.95
2024-04-21T11:09:22.042Z,101988.3
2024-04-21T11:13:22.194Z,101995.89
2024-04-21T11:17:22.214Z,101995.37
2024-04-21T11:21:22.065Z,101996.3
2024-04-21T11:25:23.563Z,101995.98
2024-04-21T11:29:22.158Z,102002.26
2024-04-21T15:29:26.019Z,101966.49
2024-04-21T15:33:26.074Z,101972.67
2024-04-21T15:45:26.092Z,101980.64
2024-04-21T15:49:25.993Z,101976.65
2024-04-21T15:53:26.039Z,101971.81
2024-04-21T15:57:27.542Z,101975.73
2024-04-21T16:01:26.118Z,101977.27
2024-04-21T16:05:25.965Z,101983.28
2024-04-21T16:09:26.125Z,101980.66
2024-04-21T16:13:26.064Z,101981.09
2024-04-21T16:17:26.306Z,101978.95999999999
2024-04-21T16:21:26.093Z,101980.24
2024-04-21T16:25:26.255Z,101979.61
2024-04-21T16:29:26.044Z,101982.36
2024-04-21T16:33:26.603Z,101987.72
2024-04-21T16:37:26.335Z,101988.06
2024-04-21T16:41:27.175Z,101981.95
2024-04-21T16:45:26.902Z,101985.51999999999
2024-04-21T16:49:27.019Z,101989.06
2024-04-21T16:53:26.537Z,101984.17
2024-04-21T16:57:28.734Z,101985.46
2024-04-21T17:01:27.277Z,101994.58
2024-04-21T17:05:26.538Z,101992.90999999999
2024-04-21T17:09:26.443Z,101992.95
2024-04-21T17:13:26.926Z,101992.19
2024-04-21T17:17:26.244Z,101996.73
2024-04-21T17:21:26.224Z,101997.97
2024-04-21T17:25:26.356Z,101998.55
2024-04-21T17:29:26.280Z,101999.72
2024-04-21T17:33:26.320Z,102001.58
2024-04-21T17:37:26.432Z,102007.2
2024-04-21T17:41:26.223Z,102003.47
2024-04-21T17:45:28.601Z,102000.37999999999
2024-04-21T17:49:26.339Z,102010.65999999999
2024-04-21T17:53:26.359Z,102011.72
2024-04-21T17:57:26.302Z,102008.95000000001
2024-04-21T18:01:30.874Z,102013.42
2024-04-21T18:05:26.411Z,102015.75
2024-04-21T18:09:26.451Z,102016.44
2024-04-21T18:13:26.337Z,102020.79
2024-04-21T18:17:28.238Z,102017.44
2024-04-21T18:21:26.471Z,102015.44
2024-04-21T18:25:26.828Z,102020.23000000001
2024-04-21T18:29:26.392Z,102019.75
2024-04-21T18:33:26.540Z,102026.2
2024-04-21T18:37:26.524Z,102029.35
2024-04-21T18:41:26.612Z,102032.79
2024-04-21T18:45:26.606Z,102039.59
2024-04-21T18:49:26.610Z,102035.40000000001
2024-04-21T18:53:26.467Z,102035.69
2024-04-21T18:57:26.493Z,102041.45999999999
2024-04-21T19:01:26.594Z,102037.64
2024-04-21T19:05:33.337Z,102041.95999999999
2024-04-21T19:09:26.815Z,102044.26
2024-04-21T19:13:27.284Z,102048.01999999999
2024-04-21T19:17:26.991Z,102048.73999999999
2024-04-21T19:21:26.994Z,102053.77
2024-04-21T19:25:27.889Z,102062.64
2024-04-21T19:29:26.536Z,102060.51999999999
2024-04-21T19:33:26.551Z,102067.56
2024-04-21T19:37:26.716Z,102072.05
2024-04-21T19:41:26.730Z,102072.77
2024-04-21T19:45:27.903Z,102078.23
2024-04-21T19:49:28.163Z,102080.17
2024-04-21T19:53:27.005Z,102081.12999999999
2024-04-21T19:57:26.668Z,102082.65
2024-04-21T20:01:31.113Z,102084.16
2024-04-21T20:05:26.714Z,102083.22
2024-04-21T20:09:26.787Z,102089.0
2024-04-21T20:13:26.631Z,102091.41
2024-04-21T20:21:26.711Z,102092.97
2024-04-21T20:25:26.990Z,102096.55
2024-04-21T20:29:29.352Z,102089.73
2024-04-21T20:33:26.820Z,102086.6
2024-04-21T20:37:26.742Z,102088.17
2024-04-21T20:41:26.964Z,102094.92
2024-04-21T20:45:26.770Z,102098.17
2024-04-21T20:49:26.996Z,102104.98999999999
2024-04-21T20:53:26.750Z,102109.53
2024-04-21T20:57:29.368Z,102109.63
2024-04-21T21:01:26.842Z,102111.53
2024-04-21T21:05:26.892Z,102110.19
2024-04-21T21:09:26.813Z,102112.98000000001
2024-04-21T21:13:28.138Z,102114.61
2024-04-21T21:17:27.681Z,102111.67
2024-04-21T21:21:26.916Z,102105.52
2024-04-21T21:25:26.886Z,102112.0
2024-04-21T21:29:27.103Z,102117.58
2024-04-21T21:33:27.072Z,102119.73000000001
2024-04-21T21:37:26.976Z,102118.76
2024-04-21T21:41:26.941Z,102116.72
2024-04-21T21:45:27.012Z,102114.88
2024-04-21T21:49:26.987Z,102112.58
2024-04-21T21:53:27.162Z,102109.18000000001
2024-04-21T21:57:26.948Z,102112.12000000001
2024-04-21T22:01:27.562Z,102111.05
2024-04-21T22:05:26.998Z,102113.01
2024-04-21T22:09:27.327Z,102122.31
2024-04-21T22:13:27.023Z,102124.34
2024-04-21T22:17:27.076Z,102113.33
2024-04-21T22:21:27.054Z,102118.55
2024-04-21T22:25:27.495Z,102111.32
2024-04-21T22:29:27.036Z,102115.48
2024-04-21T22:33:27.196Z,102120.67
2024-04-21T22:37:27.815Z,102122.58
2024-04-21T22:45:27.187Z,102118.98999999999
2024-04-21T22:49:27.133Z,102107.97
2024-04-21T22:53:27.697Z,102109.86
2024-04-21T22:57:27.823Z,102110.69
2024-04-21T23:01:27.293Z,102112.01999999999
2024-04-21T23:05:27.138Z,102117.26
2024-04-21T23:09:29.357Z,102110.65999999999
2024-04-21T23:13:27.580Z,102115.14
2024-04-21T23:17:27.261Z,102123.6
2024-04-21T23:21:27.189Z,102115.84
2024-04-21T23:25:27.325Z,102116.68
2024-04-21T23:29:27.194Z,102114.98
2024-04-21T23:33:27.283Z,102106.79000000001
2024-04-21T23:37:27.952Z,102105.52
2024-04-21T23:41:27.349Z,102099.3
2024-04-21T23:45:27.265Z,102102.34
2024-04-21T23:49:27.447Z,102092.79000000001
2024-04-21T23:53:27.224Z,102091.09
